Terminal Aerodrome Forecast
Issued by NWS Shreveport, LA

Home | Current Version | Previous Version | Text Only | Print | Product List | Glossary On
Versions: 1 2 3 4 5 6 7 8 9 10 11 12 13
000
FTUS44 KSHV 181700
TAFLFK
TAF
KLFK 181724Z 1818/1918 05005KT P6SM OVC011
     FM190000 05004KT P6SM OVC007
     FM190600 06005KT P6SM VCSH OVC006
      TEMPO 1912/1916 3SM TSRA BKN004 OVC011CB
     FM191600 04007KT 2SM -RA BR OVC004=

USA.gov is the U.S. government's official web portal to all federal, state and local government web resources and services.